createdAt,value
2023-04-01T00:00:25.716Z,10.98
2023-04-01T00:02:52.743Z,8.05
2023-04-01T00:05:19.920Z,10.57
2023-04-01T00:07:47.073Z,8.95
2023-04-01T00:10:15.136Z,11.05
2023-04-01T00:12:44.396Z,9.13
2023-04-01T00:15:12.850Z,11.75
2023-04-01T00:17:39.877Z,7.30
2023-04-01T00:20:08.369Z,12.23
2023-04-01T00:22:35.745Z,7.72
2023-04-01T00:25:03.164Z,6.72
2023-04-01T00:27:30.183Z,6.63
2023-04-01T00:29:58.691Z,8.93
2023-04-01T00:32:25.804Z,7.63
2023-04-01T00:34:53.257Z,6.00
2023-04-01T00:37:20.638Z,7.63
2023-04-01T00:39:47.895Z,5.72
2023-04-01T00:42:14.894Z,7.93
2023-04-01T00:44:44.056Z,4.68
2023-04-01T00:47:12.689Z,6.50
2023-04-01T00:49:43.238Z,7.90
2023-04-01T00:52:14.020Z,4.53
2023-04-01T00:54:43.715Z,4.63
2023-04-01T00:57:14.880Z,6.13
2023-04-01T00:59:44.514Z,7.38
2023-04-01T01:02:14.470Z,4.32
2023-04-01T01:04:41.845Z,8.40
2023-04-01T01:07:20.880Z,5.65
2023-04-01T01:09:57.648Z,8.52
2023-04-01T01:12:30.884Z,4.50
2023-04-01T01:15:07.894Z,6.03
2023-04-01T01:17:52.198Z,6.35
2023-04-01T01:21:13.305Z,7.78
2023-04-01T01:24:15.873Z,6.32
2023-04-01T01:26:54.248Z,5.60
2023-04-01T01:29:55.613Z,8.38
2023-04-01T01:32:37.492Z,5.15
2023-04-01T01:35:27.517Z,7.03
2023-04-01T01:37:59.393Z,6.63
2023-04-01T01:40:28.363Z,4.75
2023-04-01T01:42:59.105Z,4.90
2023-04-01T01:45:28.651Z,4.18
2023-04-01T01:47:57.648Z,2.47
2023-04-01T01:50:28.235Z,5.05
2023-04-01T01:53:06.180Z,4.18
2023-04-01T01:55:35.496Z,5.10
2023-04-01T01:58:08.486Z,5.38
2023-04-01T02:00:37.008Z,4.95
2023-04-01T02:03:05.496Z,6.68
2023-04-01T02:05:35.181Z,5.10
2023-04-01T02:08:07.178Z,4.07
2023-04-01T02:10:38.591Z,4.88
2023-04-01T02:13:12.066Z,6.97
2023-04-01T02:15:45.647Z,10.75
2023-04-01T02:18:14.407Z,9.95
2023-04-01T02:20:43.672Z,12.18
2023-04-01T02:23:11.845Z,10.88
2023-04-01T02:25:40.403Z,12.02
2023-04-01T02:28:09.186Z,16.98
2023-04-01T02:30:37.806Z,16.17
2023-04-01T02:33:06.339Z,15.13
2023-04-01T02:35:35.126Z,12.32
2023-04-01T02:38:04.602Z,13.90
2023-04-01T02:40:43.544Z,16.38
2023-04-01T02:43:10.523Z,14.85
2023-04-01T02:45:37.553Z,12.85
2023-04-01T02:48:05.450Z,13.98
2023-04-01T02:50:32.446Z,19.85
2023-04-01T02:52:59.467Z,15.93
2023-04-01T02:55:28.028Z,14.23
2023-04-01T02:57:54.974Z,16.45
2023-04-01T03:00:21.980Z,14.63
2023-04-01T03:02:49.253Z,15.73
2023-04-01T03:05:16.573Z,13.85
2023-04-01T03:07:44.411Z,14.88
2023-04-01T03:10:11.530Z,15.18
2023-04-01T03:12:39.857Z,15.95
2023-04-01T03:15:11.078Z,15.45
2023-04-01T03:17:38.905Z,15.35
2023-04-01T03:20:07.514Z,19.00
2023-04-01T03:22:34.469Z,16.83
2023-04-01T03:25:01.475Z,12.43
2023-04-01T03:27:28.403Z,13.73
2023-04-01T03:29:56.875Z,15.68
2023-04-01T03:32:23.826Z,16.23
2023-04-01T03:34:50.787Z,14.65
2023-04-01T03:37:17.898Z,17.65
2023-04-01T03:39:44.866Z,13.00
2023-04-01T03:42:11.880Z,15.82
2023-04-01T03:44:38.820Z,17.73
2023-04-01T03:47:07.137Z,17.75
2023-04-01T03:49:34.789Z,19.00
2023-04-01T03:52:01.917Z,23.58
2023-04-01T03:54:28.840Z,19.20
2023-04-01T03:56:55.894Z,14.75
2023-04-01T03:59:22.892Z,16.50
2023-04-01T04:01:49.953Z,23.65
2023-04-01T04:04:18.528Z,17.08
2023-04-01T04:06:45.670Z,17.42
2023-04-01T04:09:12.716Z,18.08
2023-04-01T04:11:39.716Z,10.52
2023-04-01T04:14:06.778Z,20.23
2023-04-01T04:16:35.977Z,20.08
2023-04-01T04:19:03.077Z,15.90
2023-04-01T04:21:31.422Z,10.35
2023-04-01T04:23:59.680Z,20.88
2023-04-01T04:26:26.704Z,17.67
2023-04-01T04:28:54.909Z,17.48
2023-04-01T04:31:23.192Z,16.45
2023-04-01T04:33:50.233Z,16.38
2023-04-01T04:36:17.230Z,14.70
2023-04-01T04:38:45.594Z,13.20
2023-04-01T04:41:12.969Z,18.98
2023-04-01T04:43:40.236Z,12.00
2023-04-01T04:46:07.865Z,15.57
2023-04-01T04:48:34.917Z,13.85
2023-04-01T04:51:02.383Z,17.88
2023-04-01T04:53:29.450Z,15.88
2023-04-01T04:55:57.888Z,13.15
2023-04-01T04:58:24.940Z,13.93
2023-04-01T05:00:51.957Z,12.93
2023-04-01T05:03:19.121Z,11.02
2023-04-01T05:05:54.011Z,12.23
2023-04-01T05:08:21.320Z,12.82
2023-04-01T05:10:48.414Z,15.13
2023-04-01T05:13:16.837Z,13.10
2023-04-01T05:15:43.848Z,13.20
2023-04-01T05:18:10.795Z,16.40
2023-04-01T05:20:37.769Z,10.60
2023-04-01T05:23:04.790Z,11.93
2023-04-01T05:25:31.911Z,13.40
2023-04-01T05:27:59.154Z,9.70
2023-04-01T05:30:27.578Z,10.75
2023-04-01T05:32:54.565Z,15.70
2023-04-01T05:35:21.619Z,10.15
2023-04-01T05:37:48.656Z,13.80
2023-04-01T05:40:15.857Z,14.18
2023-04-01T05:42:42.857Z,14.68
2023-04-01T05:45:10.801Z,15.15
2023-04-01T05:47:39.202Z,12.70
2023-04-01T05:50:06.832Z,17.02
2023-04-01T05:52:33.861Z,17.10
2023-04-01T05:55:00.817Z,21.52
2023-04-01T05:57:27.879Z,17.25
2023-04-01T05:59:54.955Z,16.00
2023-04-01T06:02:22.035Z,17.90
2023-04-01T06:04:54.884Z,17.88
2023-04-01T06:07:22.251Z,11.05
2023-04-01T06:09:49.219Z,19.35
2023-04-01T06:12:46.470Z,20.10
2023-04-01T06:15:24.097Z,13.30
2023-04-01T06:18:26.866Z,18.98
2023-04-01T06:21:05.864Z,15.40
2023-04-01T06:23:49.142Z,14.05
2023-04-01T06:26:29.777Z,11.90
2023-04-01T06:29:19.579Z,11.50
2023-04-01T06:32:06.846Z,15.73
2023-04-01T06:34:52.822Z,15.73
2023-04-01T06:37:43.153Z,13.93
2023-04-01T06:40:46.683Z,17.45
2023-04-01T06:43:22.012Z,15.30
2023-04-01T06:45:55.287Z,17.75
2023-04-01T06:48:38.076Z,12.80
2023-04-01T06:51:15.229Z,15.10
2023-04-01T06:53:54.636Z,12.60
2023-04-01T06:56:26.288Z,13.10
2023-04-01T06:58:55.073Z,11.88
2023-04-01T07:01:26.916Z,9.77
2023-04-01T07:04:00.214Z,10.65
2023-04-01T07:06:31.574Z,9.55
2023-04-01T07:09:05.521Z,12.27
2023-04-01T07:11:35.673Z,11.18
2023-04-01T07:14:05.424Z,13.45
2023-04-01T07:16:34.972Z,13.05
2023-04-01T07:19:07.144Z,7.65
2023-04-01T07:21:40.908Z,15.10
2023-04-01T07:24:16.592Z,10.80
2023-04-01T07:26:44.479Z,10.40
2023-04-01T07:29:14.060Z,10.13
2023-04-01T07:32:16.359Z,6.60
2023-04-01T07:34:56.280Z,5.97
2023-04-01T07:37:32.352Z,8.30
2023-04-01T07:40:11.527Z,8.32
2023-04-01T07:42:50.454Z,8.48
2023-04-01T07:45:24.034Z,6.93
2023-04-01T07:48:14.191Z,7.47
2023-04-01T07:50:53.152Z,6.85
2023-04-01T07:53:27.903Z,8.23
2023-04-01T07:56:06.100Z,7.82
2023-04-01T07:58:37.773Z,6.10
2023-04-01T08:01:14.231Z,6.93
2023-04-01T08:03:56.493Z,4.80
2023-04-01T08:06:30.631Z,5.28
2023-04-01T08:09:05.656Z,5.40
2023-04-01T08:14:17.389Z,3.70
2023-04-01T08:16:54.373Z,3.63
2023-04-01T08:19:31.830Z,3.38
2023-04-01T08:22:02.747Z,2.40
2023-04-01T08:24:46.430Z,4.18
2023-04-01T08:27:22.589Z,3.40
2023-04-01T08:29:54.176Z,3.28
2023-04-01T08:32:26.803Z,3.88
2023-04-01T08:35:08.464Z,3.13
2023-04-01T08:37:39.423Z,3.75
2023-04-01T08:40:28.619Z,2.95
2023-04-01T08:43:09.999Z,5.55
2023-04-01T08:46:04.388Z,5.32
2023-04-01T08:49:02.508Z,2.80
2023-04-01T08:51:53.728Z,3.90
2023-04-01T08:54:42.325Z,2.35
2023-04-01T08:57:21.042Z,3.47
2023-04-01T09:00:05.026Z,2.58
2023-04-01T09:02:52.583Z,3.13
2023-04-01T09:06:05.241Z,3.25
2023-04-01T09:08:43.919Z,3.33
2023-04-01T09:11:23.938Z,2.28
2023-04-01T09:14:23.644Z,2.17
2023-04-01T09:17:20.543Z,1.90
2023-04-01T09:20:06.740Z,3.90
2023-04-01T09:22:58.449Z,2.67
2023-04-01T09:25:45.740Z,2.70
2023-04-01T09:28:19.365Z,2.40
2023-04-01T09:31:16.931Z,4.43
2023-04-01T09:34:20.473Z,3.22
2023-04-01T09:36:48.476Z,2.70
2023-04-01T09:39:32.332Z,3.08
2023-04-01T09:42:25.860Z,4.22
2023-04-01T09:44:59.157Z,4.60
2023-04-01T09:47:44.587Z,3.75
2023-04-01T09:50:36.406Z,3.00
2023-04-01T09:53:15.877Z,2.72
2023-04-01T09:56:22.057Z,4.50
2023-04-01T09:59:23.646Z,3.65
2023-04-01T10:02:24.387Z,4.25
2023-04-01T10:05:23.966Z,2.97
2023-04-01T10:08:21.977Z,2.80
2023-04-01T10:11:14.837Z,2.42
2023-04-01T10:14:04.997Z,2.67
2023-04-01T10:16:54.552Z,2.67
2023-04-01T10:19:59.995Z,2.42
2023-04-01T10:22:51.619Z,1.85
2023-04-01T10:25:39.544Z,1.80
2023-04-01T10:28:46.511Z,2.30
2023-04-01T10:31:39.672Z,2.35
2023-04-01T10:34:52.577Z,2.45
2023-04-01T10:37:48.310Z,3.78
2023-04-01T10:43:33.481Z,5.07
2023-04-01T10:46:33.162Z,5.10
2023-04-01T10:49:33.638Z,5.15
2023-04-01T10:52:41.587Z,3.40
2023-04-01T10:55:37.685Z,6.20
2023-04-01T10:58:41.260Z,5.53
2023-04-01T11:01:28.531Z,7.53
2023-04-01T11:04:39.925Z,35.78
2023-04-01T11:07:48.249Z,21.67
2023-04-01T11:11:05.053Z,7.47
2023-04-01T11:14:03.947Z,5.05
2023-04-01T11:17:02.346Z,3.60
2023-04-01T11:20:11.266Z,6.15
2023-04-01T11:23:03.217Z,4.18
2023-04-01T11:26:08.473Z,4.82
2023-04-01T11:28:59.721Z,6.60
2023-04-01T11:31:44.597Z,2.60
2023-04-01T11:34:33.399Z,5.22
2023-04-01T11:37:11.246Z,6.47
2023-04-01T11:39:47.826Z,2.78
2023-04-01T11:42:27.234Z,3.30
2023-04-01T11:44:59.958Z,73.25
2023-04-01T11:47:49.918Z,4.68
2023-04-01T11:50:33.815Z,3.25
2023-04-01T11:53:16.514Z,3.03
2023-04-01T11:55:54.153Z,3.42
2023-04-01T11:58:35.512Z,4.32
2023-04-01T12:01:17.829Z,2.38
2023-04-01T12:04:26.597Z,2.40
2023-04-01T12:07:03.546Z,4.32
2023-04-01T12:09:43.546Z,1.88
2023-04-01T12:12:21.760Z,2.70
2023-04-01T12:15:01.268Z,2.35
2023-04-01T12:17:35.335Z,2.72
2023-04-01T12:20:23.046Z,2.80
2023-04-01T12:23:00.320Z,4.63
2023-04-01T12:25:52.711Z,2.78
2023-04-01T12:28:26.638Z,3.20
2023-04-01T12:31:20.331Z,3.42
2023-04-01T12:34:01.892Z,4.53
2023-04-01T12:36:41.652Z,4.07
2023-04-01T12:39:33.754Z,3.88
2023-04-01T12:42:08.411Z,3.05
2023-04-01T12:44:48.208Z,5.15
2023-04-01T12:47:42.993Z,5.47
2023-04-01T12:50:39.540Z,10.47
2023-04-01T12:53:25.219Z,11.13
2023-04-01T12:55:56.960Z,11.55
2023-04-01T12:58:52.276Z,8.05
2023-04-01T13:01:37.510Z,80.15
2023-04-01T13:04:48.572Z,35.80
2023-04-01T13:07:55.200Z,61.58
2023-04-01T13:10:36.354Z,13.25
2023-04-01T13:13:35.492Z,7.28
2023-04-01T13:16:12.194Z,10.32
2023-04-01T13:18:51.225Z,24.25
2023-04-01T13:21:24.728Z,55.03
2023-04-01T13:23:59.853Z,8.25
2023-04-01T13:26:34.653Z,10.18
2023-04-01T13:29:10.606Z,8.60
2023-04-01T13:31:56.228Z,7.25
2023-04-01T13:34:34.850Z,10.48
2023-04-01T13:37:16.316Z,11.60
2023-04-01T13:39:58.264Z,7.30
2023-04-01T13:42:29.321Z,6.03
2023-04-01T13:45:02.784Z,6.03
2023-04-01T13:48:20.536Z,4.40
2023-04-01T13:51:14.423Z,5.82
2023-04-01T13:54:12.813Z,6.65
2023-04-01T13:56:50.958Z,4.30
2023-04-01T13:59:41.673Z,4.53
2023-04-01T14:02:37.218Z,6.78
2023-04-01T14:05:16.032Z,5.80
2023-04-01T14:08:06.658Z,8.95
2023-04-01T14:10:41.467Z,19.50
2023-04-01T14:13:18.569Z,106.57
2023-04-01T14:16:08.041Z,25.02
2023-04-01T14:18:54.060Z,34.90
2023-04-01T14:21:34.422Z,2.17
2023-04-01T14:24:24.141Z,8.68
2023-04-01T14:27:37.039Z,5.28
2023-04-01T14:30:24.938Z,2.53
2023-04-01T14:33:02.182Z,1.70
2023-04-01T14:35:43.047Z,1.85
2023-04-01T14:38:36.285Z,3.47
2023-04-01T14:41:29.959Z,3.55
2023-04-01T14:44:14.091Z,2.17
2023-04-01T14:47:16.456Z,1.67
2023-04-01T14:49:47.102Z,1.88
2023-04-01T14:52:23.936Z,3.08
2023-04-01T14:54:52.748Z,1.65
2023-04-01T14:57:25.576Z,1.60
2023-04-01T14:59:55.216Z,1.90
2023-04-01T15:02:46.193Z,1.48
2023-04-01T15:05:24.861Z,2.92
2023-04-01T15:08:03.927Z,1.80
2023-04-01T15:10:56.974Z,3.83
2023-04-01T15:13:43.954Z,1.58
2023-04-01T15:16:19.683Z,1.30
2023-04-01T15:18:57.419Z,1.13
2023-04-01T15:21:48.100Z,1.88
2023-04-01T15:24:22.820Z,1.25
2023-04-01T15:27:15.106Z,2.25
2023-04-01T15:30:19.716Z,1.23
2023-04-01T15:32:58.741Z,1.92
2023-04-01T15:35:38.818Z,2.38
2023-04-01T15:38:10.905Z,1.45
2023-04-01T15:40:48.719Z,1.52
2023-04-01T15:43:28.583Z,1.48
2023-04-01T15:46:10.021Z,1.58
2023-04-01T15:48:56.278Z,1.15
2023-04-01T15:51:45.409Z,1.40
2023-04-01T15:54:28.333Z,1.65
2023-04-01T15:57:10.501Z,1.65
2023-04-01T15:59:54.532Z,1.30
2023-04-01T16:02:26.069Z,2.17
2023-04-01T16:05:00.261Z,3.22
2023-04-01T16:07:43.429Z,2.30
2023-04-01T16:10:33.215Z,2.40
2023-04-01T16:13:22.573Z,4.55
2023-04-01T16:15:59.703Z,2.58
2023-04-01T16:18:41.261Z,2.75
2023-04-01T16:21:15.103Z,2.95
2023-04-01T16:23:50.202Z,2.05
2023-04-01T16:26:24.344Z,2.17
2023-04-01T16:28:58.461Z,2.10
2023-04-01T16:31:33.610Z,3.23
2023-04-01T16:34:09.292Z,2.75
2023-04-01T16:36:43.073Z,2.28
2023-04-01T16:39:23.626Z,4.03
2023-04-01T16:41:55.116Z,4.07
2023-04-01T16:44:24.695Z,3.63
2023-04-01T16:46:53.492Z,3.63
2023-04-01T16:49:34.043Z,2.35
2023-04-01T16:52:16.814Z,2.40
2023-04-01T16:54:48.800Z,3.05
2023-04-01T16:57:20.545Z,4.03
2023-04-01T16:59:56.326Z,2.70
2023-04-01T17:02:27.626Z,4.38
2023-04-01T17:05:01.112Z,2.20
2023-04-01T17:07:48.199Z,2.75
2023-04-01T17:10:34.647Z,4.70
2023-04-01T17:13:35.818Z,3.63
2023-04-01T17:16:25.295Z,3.88
2023-04-01T17:19:04.179Z,4.78
2023-04-01T17:21:46.999Z,2.55
2023-04-01T17:24:28.459Z,3.10
2023-04-01T17:27:03.924Z,3.15
2023-04-01T17:29:39.579Z,2.25
2023-04-01T17:32:14.069Z,3.83
2023-04-01T17:34:55.755Z,3.05
2023-04-01T17:37:35.309Z,3.28
2023-04-01T17:40:26.633Z,3.70
2023-04-01T17:42:59.178Z,4.53
2023-04-01T17:45:33.010Z,4.20
2023-04-01T17:48:12.507Z,3.20
2023-04-01T17:50:59.545Z,3.25
2023-04-01T17:53:36.989Z,4.93
2023-04-01T17:56:20.024Z,4.60
2023-04-01T17:58:51.903Z,3.67
2023-04-01T18:01:27.152Z,3.95
2023-04-01T18:04:11.997Z,6.97
2023-04-01T18:07:03.693Z,4.90
2023-04-01T18:09:42.892Z,4.25
2023-04-01T18:12:19.037Z,4.75
2023-04-01T18:15:08.579Z,5.82
2023-04-01T18:17:50.681Z,5.15
2023-04-01T18:20:41.057Z,5.88
2023-04-01T18:23:19.949Z,7.20
2023-04-01T18:25:50.445Z,9.70
2023-04-01T18:28:28.258Z,6.68
2023-04-01T18:30:59.997Z,6.75
2023-04-01T18:33:33.063Z,6.35
2023-04-01T18:36:14.439Z,7.15
2023-04-01T18:38:48.644Z,9.20
2023-04-01T18:41:32.957Z,8.30
2023-04-01T18:44:17.345Z,8.02
2023-04-01T18:46:52.002Z,6.97
2023-04-01T18:49:26.216Z,7.40
2023-04-01T18:51:57.744Z,6.93
2023-04-01T18:54:30.458Z,6.90
2023-04-01T18:57:05.388Z,9.18
2023-04-01T19:02:09.508Z,5.05
2023-04-01T19:04:40.708Z,3.72
2023-04-01T19:07:43.868Z,4.55
2023-04-01T19:10:18.295Z,7.13
2023-04-01T19:12:52.207Z,6.65
2023-04-01T19:15:28.521Z,7.45
2023-04-01T19:18:18.756Z,7.20
2023-04-01T19:20:52.287Z,7.25
2023-04-01T19:23:54.700Z,7.13
2023-04-01T19:26:27.808Z,8.40
2023-04-01T19:29:00.920Z,11.60
2023-04-01T19:31:45.755Z,11.75
2023-04-01T19:34:26.737Z,11.68
2023-04-01T19:36:57.791Z,12.73
2023-04-01T19:39:38.457Z,15.18
2023-04-01T19:42:12.892Z,15.32
2023-04-01T19:44:54.232Z,18.40
2023-04-01T19:47:31.173Z,18.85
2023-04-01T19:50:07.727Z,18.92
2023-04-01T19:52:38.319Z,21.50
2023-04-01T19:55:18.302Z,22.48
2023-04-01T19:57:52.266Z,28.83
2023-04-01T20:00:26.785Z,24.92
2023-04-01T20:03:02.185Z,25.50
2023-04-01T20:05:43.061Z,27.23
2023-04-01T20:08:17.789Z,27.35
2023-04-01T20:10:51.722Z,28.23
2023-04-01T20:13:28.812Z,32.88
2023-04-01T20:16:05.019Z,33.28
2023-04-01T20:18:42.428Z,32.88
2023-04-01T20:21:32.698Z,34.42
2023-04-01T20:24:02.856Z,30.80
2023-04-01T20:26:34.999Z,33.95
2023-04-01T20:29:26.673Z,40.78
2023-04-01T20:32:05.438Z,42.95
2023-04-01T20:35:03.252Z,40.40
2023-04-01T20:37:37.651Z,42.17
2023-04-01T20:40:39.054Z,40.72
2023-04-01T20:43:45.656Z,39.83
2023-04-01T20:46:23.199Z,38.67
2023-04-01T20:49:25.035Z,38.00
2023-04-01T20:51:58.487Z,39.40
2023-04-01T20:54:43.897Z,34.17
2023-04-01T20:57:13.976Z,36.30
2023-04-01T21:00:03.382Z,34.83
2023-04-01T21:02:53.529Z,37.03
2023-04-01T21:05:57.840Z,31.58
2023-04-01T21:08:36.467Z,32.95
2023-04-01T21:11:10.742Z,36.30
2023-04-01T21:13:57.686Z,40.10
2023-04-01T21:16:34.156Z,41.30
2023-04-01T21:19:17.958Z,42.88
2023-04-01T21:22:23.616Z,46.35
2023-04-01T21:25:16.034Z,54.35
2023-04-01T21:28:21.559Z,50.45
2023-04-01T21:31:06.251Z,64.53
2023-04-01T21:34:30.827Z,67.40
2023-04-01T21:37:12.176Z,58.88
2023-04-01T21:39:59.677Z,62.58
2023-04-01T21:42:41.809Z,67.97
2023-04-01T21:45:22.119Z,49.97
2023-04-01T21:48:30.359Z,61.40
2023-04-01T21:51:30.110Z,58.42
2023-04-01T21:54:26.382Z,52.78
2023-04-01T21:57:41.121Z,50.08
2023-04-01T22:00:19.313Z,43.55
2023-04-01T22:03:30.636Z,43.75
2023-04-01T22:06:06.523Z,45.45
2023-04-01T22:08:48.949Z,48.80
2023-04-01T22:11:26.129Z,45.75
2023-04-01T22:13:59.315Z,40.47
2023-04-01T22:16:36.372Z,40.15
2023-04-01T22:19:10.860Z,40.38
2023-04-01T22:21:45.044Z,39.97
2023-04-01T22:24:20.720Z,32.53
2023-04-01T22:26:54.705Z,46.40
2023-04-01T22:29:28.097Z,40.92
2023-04-01T22:31:58.842Z,41.40
2023-04-01T22:34:34.365Z,42.08
2023-04-01T22:37:08.849Z,46.38
2023-04-01T22:40:01.013Z,43.47
2023-04-01T22:42:41.643Z,46.90
2023-04-01T22:45:28.554Z,44.33
2023-04-01T22:48:04.227Z,45.15
2023-04-01T22:50:37.064Z,37.97
2023-04-01T22:53:14.493Z,39.80
2023-04-01T22:55:53.617Z,46.13
2023-04-01T22:58:27.308Z,42.88
2023-04-01T23:00:57.761Z,43.42
2023-04-01T23:03:30.916Z,42.58
2023-04-01T23:05:59.377Z,39.17
2023-04-01T23:09:02.056Z,40.28
2023-04-01T23:11:35.342Z,39.97
2023-04-01T23:14:45.103Z,36.50
2023-04-01T23:17:42.802Z,38.50
2023-04-01T23:20:22.040Z,38.47
2023-04-01T23:23:01.497Z,31.55
2023-04-01T23:25:44.229Z,32.10
2023-04-01T23:28:40.169Z,28.88
2023-04-01T23:31:28.473Z,30.85
2023-04-01T23:33:56.781Z,33.50
2023-04-01T23:36:24.130Z,36.08
2023-04-01T23:38:51.495Z,39.95
2023-04-01T23:41:22.745Z,43.63
2023-04-01T23:43:57.593Z,47.85
2023-04-01T23:46:25.905Z,45.83
2023-04-01T23:48:53.690Z,40.65
2023-04-01T23:51:23.852Z,41.92
2023-04-01T23:54:00.142Z,40.00
2023-04-01T23:56:36.273Z,37.13
2023-04-01T23:59:04.580Z,34.33
